Terminal Aerodrome Forecast
Issued by NWS

Home | Current Version | Previous Version | Text Only | Print | Product List | Glossary On
Versions: 1 2 3 4 5 6 7 8 9 10 11 12 13 14 15 16 17 18 19
253
FTUS46 KMFR 271147
TAFLMT
TAF
KLMT 271147Z 2712/2812 28005KT P6SM FEW025 SCT050
     FM271700 31010KT P6SM BKN050
     FM271900 31012G20KT P6SM SCT050
     FM280800 30007KT P6SM FEW050=

USA.gov is the U.S. government's official web portal to all federal, state and local government web resources and services.